Time;durP1;ratioP1;P1;durP2;ratioP2;P2;SDS_P1;SDS_P2;PMS_P1;PMS_P2;Temp;Humidity;BMP_temperature;BMP_pressure;BME280_temperature;BME280_humidity;BME280_pressure;Samples;Min_cycle;Max_cycle;Signal;HPM_P1;HPM_P2
2022/09/19 00:00:55;;;;;;;4.15;1.40;;;;;;;;;;5031704;28;20030;-61
2022/09/19 00:03:21;;;;;;;2.20;1.10;;;;;;;;;;5032591;28;20024;-61
2022/09/19 00:05:47;;;;;;;2.90;1.13;;;;;;;;;;5031009;28;20029;-61
2022/09/19 00:08:13;;;;;;;5.78;1.13;;;;;;;;;;5031836;28;20025;-61
2022/09/19 00:10:40;;;;;;;7.03;1.52;;;;;;;;;;5026149;28;20033;-61
2022/09/19 00:13:07;;;;;;;7.07;1.25;;;;;;;;;;5030288;28;20114;-61
2022/09/19 00:15:33;;;;;;;3.88;1.13;;;;;;;;;;5021045;28;20104;-61
2022/09/19 00:17:59;;;;;;;3.53;1.00;;;;;;;;;;5032117;28;20033;-61
2022/09/19 00:20:25;;;;;;;2.58;1.10;;;;;;;;;;5013997;28;20032;-61
2022/09/19 00:25:35;;;;;;;3.95;1.23;;;;;;;;;;5027964;28;20574;-61
2022/09/19 00:28:01;;;;;;;7.90;1.60;;;;;;;;;;5031064;28;20033;-61
2022/09/19 00:30:27;;;;;;;5.25;1.45;;;;;;;;;;5001370;28;20032;-61
2022/09/19 00:32:53;;;;;;;5.47;1.55;;;;;;;;;;5030064;28;20029;-61
2022/09/19 00:35:20;;;;;;;3.50;1.17;;;;;;;;;;5014345;28;20121;-61
2022/09/19 00:37:46;;;;;;;6.15;1.33;;;;;;;;;;5022820;28;20040;-61
2022/09/19 00:40:12;;;;;;;5.05;1.30;;;;;;;;;;5013767;28;20033;-61
2022/09/19 00:42:38;;;;;;;6.75;1.30;;;;;;;;;;5027765;28;20047;-61
2022/09/19 00:45:07;;;;;;;3.00;1.15;;;;;;;;;;5023563;28;20037;-61
2022/09/19 00:47:35;;;;;;;4.55;1.40;;;;;;;;;;5031902;28;20031;-61
2022/09/19 00:50:03;;;;;;;5.15;1.73;;;;;;;;;;5030028;28;20029;-61
2022/09/19 00:52:50;;;;;;;5.15;1.98;;;;;;;;;;5029409;28;20037;-61
2022/09/19 00:55:17;;;;;;;10.27;1.67;;;;;;;;;;5024631;28;20144;-61
2022/09/19 00:57:49;;;;;;;3.33;1.33;;;;;;;;;;5028140;28;20397;-61
2022/09/19 01:00:15;;;;;;;8.00;1.42;;;;;;;;;;5030093;28;20037;-61
2022/09/19 01:02:41;;;;;;;4.47;1.45;;;;;;;;;;5030781;28;20095;-61
2022/09/19 01:05:07;;;;;;;7.80;2.20;;;;;;;;;;5026380;28;20053;-61
2022/09/19 01:07:46;;;;;;;6.05;1.67;;;;;;;;;;5030570;28;20484;-61
2022/09/19 01:10:30;;;;;;;14.38;1.85;;;;;;;;;;5030164;28;20039;-60
2022/09/19 01:13:09;;;;;;;6.72;2.05;;;;;;;;;;5025894;28;20033;-61
2022/09/19 01:15:40;;;;;;;4.25;1.60;;;;;;;;;;5026055;28;20044;-61
2022/09/19 01:18:08;;;;;;;3.88;1.40;;;;;;;;;;5023073;28;20033;-61
2022/09/19 01:20:53;;;;;;;4.80;1.67;;;;;;;;;;5028277;28;20456;-61
2022/09/19 01:23:32;;;;;;;3.83;1.65;;;;;;;;;;5031279;28;20037;-61
2022/09/19 01:26:16;;;;;;;4.80;1.63;;;;;;;;;;5022085;28;20025;-61
2022/09/19 01:28:42;;;;;;;6.97;1.75;;;;;;;;;;5025110;28;20482;-61
2022/09/19 01:31:16;;;;;;;3.28;1.02;;;;;;;;;;5024686;28;20040;-61
2022/09/19 01:33:45;;;;;;;5.07;1.45;;;;;;;;;;5023522;28;20034;-61
2022/09/19 01:36:14;;;;;;;4.93;1.52;;;;;;;;;;5031026;28;20021;-61
2022/09/19 01:38:41;;;;;;;4.20;1.35;;;;;;;;;;5030342;28;20565;-61
2022/09/19 01:41:08;;;;;;;5.90;1.45;;;;;;;;;;5029078;28;20480;-61
2022/09/19 01:43:34;;;;;;;4.45;1.70;;;;;;;;;;5029343;28;20095;-61
2022/09/19 01:46:07;;;;;;;4.50;1.65;;;;;;;;;;5027166;28;20040;-61
2022/09/19 01:49:08;;;;;;;8.95;2.15;;;;;;;;;;5029619;28;20033;-61
2022/09/19 01:51:39;;;;;;;6.63;2.08;;;;;;;;;;4925618;29;20087;-61
2022/09/19 01:54:17;;;;;;;4.97;1.83;;;;;;;;;;5001801;28;20051;-61
2022/09/19 01:56:54;;;;;;;10.13;1.90;;;;;;;;;;5029967;28;20026;-62
2022/09/19 01:59:31;;;;;;;3.42;1.90;;;;;;;;;;5024886;28;20033;-61
2022/09/19 02:02:10;;;;;;;6.53;2.00;;;;;;;;;;5029444;28;20037;-61
2022/09/19 02:04:41;;;;;;;6.68;2.50;;;;;;;;;;5029268;28;20036;-61
2022/09/19 02:07:07;;;;;;;7.75;2.08;;;;;;;;;;5018477;28;20105;-61
2022/09/19 02:09:44;;;;;;;8.60;1.70;;;;;;;;;;5029793;28;20033;-62
2022/09/19 02:12:12;;;;;;;6.38;2.25;;;;;;;;;;5030672;28;20485;-61
2022/09/19 02:14:39;;;;;;;8.30;2.58;;;;;;;;;;5024558;28;20041;-61
2022/09/19 02:17:07;;;;;;;7.05;2.50;;;;;;;;;;5029983;28;20219;-61
2022/09/19 02:19:44;;;;;;;4.55;1.88;;;;;;;;;;5029572;28;20088;-61
2022/09/19 02:22:13;;;;;;;5.53;3.17;;;;;;;;;;5026997;28;20109;-61
2022/09/19 02:24:41;;;;;;;4.97;2.53;;;;;;;;;;5023006;28;20053;-61
2022/09/19 02:27:08;;;;;;;4.10;2.47;;;;;;;;;;5028828;28;20034;-61
2022/09/19 02:29:35;;;;;;;4.80;2.35;;;;;;;;;;5026877;28;20028;-61
2022/09/19 02:32:02;;;;;;;7.55;2.30;;;;;;;;;;5029958;28;20025;-61
2022/09/19 02:34:28;;;;;;;8.93;2.90;;;;;;;;;;5029700;28;20030;-61
2022/09/19 02:37:00;;;;;;;5.68;2.20;;;;;;;;;;5030562;28;20460;-61
2022/09/19 02:39:27;;;;;;;3.80;2.30;;;;;;;;;;5024783;28;20030;-61
2022/09/19 02:42:00;;;;;;;6.75;2.80;;;;;;;;;;5029197;28;20079;-61
2022/09/19 02:44:36;;;;;;;7.85;2.55;;;;;;;;;;5030347;28;20030;-61
2022/09/19 02:47:18;;;;;;;5.47;2.55;;;;;;;;;;5020394;28;20041;-61
2022/09/19 02:49:56;;;;;;;5.38;2.80;;;;;;;;;;5019065;28;20029;-61
2022/09/19 02:52:30;;;;;;;9.05;2.70;;;;;;;;;;5031017;28;20480;-61
2022/09/19 02:55:02;;;;;;;7.97;2.70;;;;;;;;;;5026264;28;20081;-61
2022/09/19 02:57:29;;;;;;;5.18;2.38;;;;;;;;;;5021609;28;20385;-61
2022/09/19 02:59:58;;;;;;;13.32;2.78;;;;;;;;;;5033050;28;20021;-61
2022/09/19 03:02:27;;;;;;;5.25;2.90;;;;;;;;;;5033451;28;20029;-62
2022/09/19 03:04:57;;;;;;;5.03;2.90;;;;;;;;;;5033534;28;20037;-61
2022/09/19 03:07:27;;;;;;;9.13;2.80;;;;;;;;;;5028932;28;20034;-61
2022/09/19 03:10:13;;;;;;;3.80;2.60;;;;;;;;;;5032506;28;20038;-61
2022/09/19 03:12:52;;;;;;;5.20;2.80;;;;;;;;;;5004043;28;20521;-61
2022/09/19 03:15:21;;;;;;;7.45;3.13;;;;;;;;;;5021114;28;20108;-61
2022/09/19 03:17:49;;;;;;;10.40;4.15;;;;;;;;;;5033093;28;20627;-61
2022/09/19 03:20:16;;;;;;;8.00;3.40;;;;;;;;;;5022867;28;20060;-61
2022/09/19 03:22:42;;;;;;;6.60;3.40;;;;;;;;;;5033346;28;20388;-61
2022/09/19 03:25:09;;;;;;;11.07;3.70;;;;;;;;;;5028574;28;20395;-61
2022/09/19 03:27:36;;;;;;;6.35;3.38;;;;;;;;;;5032783;28;20136;-62
2022/09/19 03:30:03;;;;;;;5.90;3.30;;;;;;;;;;5031146;28;20025;-61
2022/09/19 03:32:29;;;;;;;12.75;4.13;;;;;;;;;;5032249;28;20473;-61
2022/09/19 03:34:55;;;;;;;8.35;4.07;;;;;;;;;;5031168;28;20025;-61
2022/09/19 03:37:21;;;;;;;7.35;4.00;;;;;;;;;;5030989;28;20030;-61
2022/09/19 03:39:47;;;;;;;5.72;4.00;;;;;;;;;;5032530;28;20034;-61
2022/09/19 03:42:14;;;;;;;8.18;4.35;;;;;;;;;;5033028;28;20080;-61
2022/09/19 03:44:40;;;;;;;8.15;4.20;;;;;;;;;;5032660;28;20033;-61
2022/09/19 03:47:06;;;;;;;7.50;4.40;;;;;;;;;;5030054;28;20040;-61
2022/09/19 03:49:32;;;;;;;7.00;4.30;;;;;;;;;;5031857;28;20025;-61
2022/09/19 03:51:59;;;;;;;9.38;3.85;;;;;;;;;;5031317;28;20619;-61
2022/09/19 03:54:25;;;;;;;9.20;4.80;;;;;;;;;;5032031;28;20033;-61
2022/09/19 03:56:52;;;;;;;8.93;4.15;;;;;;;;;;5032747;28;20036;-61
2022/09/19 03:59:18;;;;;;;8.27;4.30;;;;;;;;;;5032495;28;20511;-61
2022/09/19 04:01:45;;;;;;;7.90;4.32;;;;;;;;;;5030450;28;20117;-61
2022/09/19 04:04:11;;;;;;;8.68;4.60;;;;;;;;;;5028182;28;20030;-61
2022/09/19 04:06:37;;;;;;;10.32;5.45;;;;;;;;;;5031983;28;20428;-61
2022/09/19 04:09:03;;;;;;;10.40;4.70;;;;;;;;;;5024575;28;20080;-61
2022/09/19 04:11:29;;;;;;;14.82;4.90;;;;;;;;;;5022959;28;20567;-61
2022/09/19 04:13:56;;;;;;;7.68;4.70;;;;;;;;;;5032053;28;20021;-61
2022/09/19 04:16:24;;;;;;;9.75;4.72;;;;;;;;;;5030141;28;20104;-61
2022/09/19 04:18:50;;;;;;;9.57;4.72;;;;;;;;;;5025432;28;20057;-61
2022/09/19 04:21:16;;;;;;;9.27;5.40;;;;;;;;;;5026001;28;20025;-61
2022/09/19 04:23:43;;;;;;;8.30;4.97;;;;;;;;;;5025899;28;20029;-61
2022/09/19 04:26:10;;;;;;;9.98;5.25;;;;;;;;;;5031130;28;20543;-61
2022/09/19 04:28:38;;;;;;;8.07;4.60;;;;;;;;;;5022629;28;20044;-61
2022/09/19 04:31:04;;;;;;;13.32;5.78;;;;;;;;;;5029000;28;20034;-61
2022/09/19 04:33:30;;;;;;;6.15;4.90;;;;;;;;;;5029268;28;20038;-61
2022/09/19 04:35:59;;;;;;;9.95;5.25;;;;;;;;;;5028861;28;20017;-61
2022/09/19 04:38:26;;;;;;;8.35;5.00;;;;;;;;;;5030938;28;20493;-61
2022/09/19 04:40:56;;;;;;;12.48;5.18;;;;;;;;;;5020046;28;20067;-61
2022/09/19 04:43:22;;;;;;;10.80;5.82;;;;;;;;;;5020319;28;20089;-61
2022/09/19 04:45:49;;;;;;;9.73;5.38;;;;;;;;;;5029773;28;20105;-61
2022/09/19 04:48:16;;;;;;;9.00;5.28;;;;;;;;;;5030997;28;20026;-61
2022/09/19 04:50:43;;;;;;;13.38;5.55;;;;;;;;;;5030298;28;20176;-61
2022/09/19 04:53:13;;;;;;;8.90;5.18;;;;;;;;;;5023394;28;20099;-61
2022/09/19 04:55:39;;;;;;;10.95;5.18;;;;;;;;;;5024259;28;20044;-61
2022/09/19 04:58:06;;;;;;;8.80;4.85;;;;;;;;;;5030342;28;20034;-61
2022/09/19 05:00:41;;;;;;;8.75;4.40;;;;;;;;;;5024978;28;20108;-60
2022/09/19 05:03:12;;;;;;;8.75;4.78;;;;;;;;;;5029140;28;21615;-61
2022/09/19 05:05:45;;;;;;;7.32;4.85;;;;;;;;;;5025887;28;20038;-61
2022/09/19 05:08:12;;;;;;;9.45;5.15;;;;;;;;;;5027264;28;20500;-61
2022/09/19 05:10:38;;;;;;;11.80;4.40;;;;;;;;;;5022241;28;20034;-61
2022/09/19 05:13:04;;;;;;;10.40;4.82;;;;;;;;;;5027926;28;20124;-61
2022/09/19 05:15:31;;;;;;;13.50;4.38;;;;;;;;;;5026994;28;20040;-61
2022/09/19 05:17:57;;;;;;;7.10;4.68;;;;;;;;;;5019223;28;20195;-61
2022/09/19 05:20:26;;;;;;;11.70;5.03;;;;;;;;;;5006779;28;20160;-61
2022/09/19 05:22:58;;;;;;;5.93;3.45;;;;;;;;;;5020319;28;20041;-61
2022/09/19 05:25:25;;;;;;;9.45;4.20;;;;;;;;;;5022567;28;20508;-61
2022/09/19 05:27:51;;;;;;;5.28;3.55;;;;;;;;;;5031085;28;20033;-61
2022/09/19 05:30:17;;;;;;;8.88;3.75;;;;;;;;;;5030804;28;20079;-61
2022/09/19 05:32:44;;;;;;;8.70;3.10;;;;;;;;;;5031008;28;20028;-61
2022/09/19 05:35:11;;;;;;;6.88;3.10;;;;;;;;;;5029347;28;20041;-61
2022/09/19 05:37:39;;;;;;;9.25;2.90;;;;;;;;;;5021224;28;20084;-61
2022/09/19 05:40:06;;;;;;;5.28;2.55;;;;;;;;;;5026978;28;20085;-61
2022/09/19 05:42:32;;;;;;;6.18;2.80;;;;;;;;;;5029254;28;20026;-61
2022/09/19 05:44:58;;;;;;;4.78;2.30;;;;;;;;;;5030676;28;20079;-61
2022/09/19 05:47:25;;;;;;;5.00;2.60;;;;;;;;;;5030423;28;20029;-61
2022/09/19 05:49:50;;;;;;;5.10;2.40;;;;;;;;;;5026589;28;20083;-61
2022/09/19 05:55:01;;;;;;;8.18;2.38;;;;;;;;;;5030292;28;20443;-62
2022/09/19 05:57:27;;;;;;;4.90;2.33;;;;;;;;;;5029032;28;20022;-61
2022/09/19 05:59:54;;;;;;;3.58;2.17;;;;;;;;;;5029156;28;20497;-61
2022/09/19 06:02:20;;;;;;;4.20;1.83;;;;;;;;;;5026619;28;20022;-61
2022/09/19 06:04:46;;;;;;;5.93;2.33;;;;;;;;;;5030801;28;20038;-61
2022/09/19 06:07:12;;;;;;;8.13;3.03;;;;;;;;;;5028162;28;20029;-61
2022/09/19 06:09:38;;;;;;;7.03;2.10;;;;;;;;;;5030493;28;20107;-61
2022/09/19 06:12:04;;;;;;;5.63;2.33;;;;;;;;;;5030389;28;20029;-61
2022/09/19 06:14:31;;;;;;;6.97;3.50;;;;;;;;;;5030791;28;20481;-61
2022/09/19 06:16:57;;;;;;;4.90;2.25;;;;;;;;;;5029758;28;20056;-61
2022/09/19 06:19:23;;;;;;;4.28;2.60;;;;;;;;;;5030334;28;20034;-61
2022/09/19 06:21:50;;;;;;;4.63;2.45;;;;;;;;;;5027601;28;20083;-61
2022/09/19 06:24:16;;;;;;;3.03;1.85;;;;;;;;;;5030776;28;20026;-61
2022/09/19 06:26:42;;;;;;;2.65;1.80;;;;;;;;;;5034309;28;20052;-61
2022/09/19 06:29:08;;;;;;;3.47;2.10;;;;;;;;;;5027051;28;20034;-61
2022/09/19 06:31:35;;;;;;;6.55;2.70;;;;;;;;;;5033872;28;20033;-61
2022/09/19 06:34:01;;;;;;;6.93;1.80;;;;;;;;;;5033342;28;20037;-61
2022/09/19 06:36:27;;;;;;;4.30;1.95;;;;;;;;;;5033055;28;20381;-61
2022/09/19 06:38:52;;;;;;;2.88;1.92;;;;;;;;;;5028603;28;20029;-61
2022/09/19 06:41:18;;;;;;;4.32;2.00;;;;;;;;;;5032774;28;20026;-61
2022/09/19 06:43:45;;;;;;;4.93;2.05;;;;;;;;;;5032024;28;20033;-61
2022/09/19 06:46:11;;;;;;;7.25;2.42;;;;;;;;;;5030817;28;20030;-61
2022/09/19 06:48:37;;;;;;;5.53;1.60;;;;;;;;;;5033888;28;20018;-61
2022/09/19 06:51:03;;;;;;;5.47;1.73;;;;;;;;;;5032755;28;20056;-61
2022/09/19 06:53:30;;;;;;;8.98;1.88;;;;;;;;;;5031746;28;20393;-61
2022/09/19 06:55:56;;;;;;;3.88;1.67;;;;;;;;;;5030464;28;20737;-61
2022/09/19 06:58:24;;;;;;;5.57;1.95;;;;;;;;;;5033875;28;20450;-61
2022/09/19 07:00:50;;;;;;;2.78;1.70;;;;;;;;;;5032003;28;20523;-60
2022/09/19 07:03:17;;;;;;;3.78;1.70;;;;;;;;;;5033586;28;20021;-61
2022/09/19 07:05:44;;;;;;;7.13;2.13;;;;;;;;;;5033562;28;20026;-61
2022/09/19 07:08:10;;;;;;;5.72;2.60;;;;;;;;;;5032456;28;20025;-61
2022/09/19 07:10:37;;;;;;;3.50;1.60;;;;;;;;;;5026694;28;20033;-61
2022/09/19 07:13:04;;;;;;;6.05;2.20;;;;;;;;;;5031294;28;20068;-61
2022/09/19 07:15:31;;;;;;;4.47;2.00;;;;;;;;;;5028110;28;20053;-61
2022/09/19 07:17:57;;;;;;;2.50;1.73;;;;;;;;;;5032767;28;20454;-61
2022/09/19 07:20:23;;;;;;;4.85;1.75;;;;;;;;;;5033090;28;20029;-61
2022/09/19 07:23:00;;;;;;;2.80;1.70;;;;;;;;;;5033470;28;20057;-61
2022/09/19 07:25:26;;;;;;;2.97;1.67;;;;;;;;;;5033426;28;20104;-61
2022/09/19 07:27:58;;;;;;;4.07;1.80;;;;;;;;;;5031651;28;20397;-61
2022/09/19 07:30:24;;;;;;;5.03;1.77;;;;;;;;;;5032023;28;20057;-62
2022/09/19 07:32:53;;;;;;;4.03;1.85;;;;;;;;;;5033387;28;20056;-61
2022/09/19 07:35:19;;;;;;;3.63;1.73;;;;;;;;;;5031898;28;20526;-61
2022/09/19 07:37:49;;;;;;;4.50;1.45;;;;;;;;;;5025798;28;20017;-61
2022/09/19 07:40:15;;;;;;;3.95;1.55;;;;;;;;;;5032703;28;20526;-61
2022/09/19 07:42:41;;;;;;;3.22;1.45;;;;;;;;;;5031440;28;20096;-61
2022/09/19 07:45:07;;;;;;;6.30;1.90;;;;;;;;;;5032102;28;20156;-61
2022/09/19 07:47:33;;;;;;;7.05;1.52;;;;;;;;;;5031568;28;20033;-61
2022/09/19 07:49:59;;;;;;;2.22;1.70;;;;;;;;;;5030927;28;20030;-61
2022/09/19 07:52:26;;;;;;;8.48;1.52;;;;;;;;;;5027178;28;20045;-61
2022/09/19 07:54:51;;;;;;;4.53;1.83;;;;;;;;;;5032249;28;20030;-61
2022/09/19 07:57:18;;;;;;;5.65;1.40;;;;;;;;;;5023465;28;20021;-61
2022/09/19 07:59:45;;;;;;;4.55;1.90;;;;;;;;;;5030906;28;20033;-61
2022/09/19 08:02:11;;;;;;;2.05;1.38;;;;;;;;;;5032848;28;20550;-61
2022/09/19 08:04:37;;;;;;;2.72;1.38;;;;;;;;;;5032549;28;20464;-61
2022/09/19 08:07:04;;;;;;;2.95;1.40;;;;;;;;;;5032509;28;20030;-61
2022/09/19 08:09:30;;;;;;;6.95;1.42;;;;;;;;;;5031660;28;20018;-61
2022/09/19 08:11:57;;;;;;;4.75;1.45;;;;;;;;;;5029753;28;20037;-61
2022/09/19 08:14:23;;;;;;;3.83;1.33;;;;;;;;;;5032194;28;20026;-61
2022/09/19 08:16:50;;;;;;;4.30;1.13;;;;;;;;;;5032346;28;20022;-61
2022/09/19 08:19:16;;;;;;;3.55;1.20;;;;;;;;;;5031103;28;20491;-61
2022/09/19 08:21:42;;;;;;;3.35;1.25;;;;;;;;;;5028663;28;20029;-61
2022/09/19 08:24:08;;;;;;;3.13;1.10;;;;;;;;;;5032276;28;20484;-61
2022/09/19 08:26:34;;;;;;;2.08;1.02;;;;;;;;;;5031546;28;20386;-61
2022/09/19 08:29:00;;;;;;;6.47;1.80;;;;;;;;;;5030587;28;20175;-61
2022/09/19 08:31:26;;;;;;;1.80;1.10;;;;;;;;;;5031358;28;20591;-61
2022/09/19 08:33:52;;;;;;;2.03;1.38;;;;;;;;;;5031427;28;20025;-61
2022/09/19 08:36:18;;;;;;;3.22;1.10;;;;;;;;;;5030867;28;20104;-61
2022/09/19 08:38:44;;;;;;;6.18;1.10;;;;;;;;;;5031390;28;20030;-61
2022/09/19 08:41:33;;;;;;;2.00;1.23;;;;;;;;;;5031388;28;20083;-61
2022/09/19 08:43:59;;;;;;;3.47;1.10;;;;;;;;;;5030248;28;20029;-61
2022/09/19 08:46:35;;;;;;;2.78;0.88;;;;;;;;;;5031137;28;20037;-61
2022/09/19 08:49:04;;;;;;;1.85;1.30;;;;;;;;;;5031339;28;20068;-61
2022/09/19 08:51:31;;;;;;;5.60;1.20;;;;;;;;;;5013926;28;20029;-61
2022/09/19 08:54:04;;;;;;;5.88;1.58;;;;;;;;;;5031261;28;20451;-61
2022/09/19 08:56:30;;;;;;;3.13;0.73;;;;;;;;;;5011861;28;20104;-61
2022/09/19 08:59:01;;;;;;;5.47;1.13;;;;;;;;;;5031633;28;20192;-61
2022/09/19 09:01:30;;;;;;;4.28;0.90;;;;;;;;;;5029797;28;20489;-62
2022/09/19 09:04:15;;;;;;;2.22;0.82;;;;;;;;;;5031409;28;20021;-61
2022/09/19 09:06:50;;;;;;;1.08;0.77;;;;;;;;;;5031480;28;20041;-62
2022/09/19 09:09:36;;;;;;;1.23;0.70;;;;;;;;;;5031564;28;20064;-61
2022/09/19 09:12:15;;;;;;;5.43;0.75;;;;;;;;;;5030753;28;20041;-61
2022/09/19 09:15:01;;;;;;;1.08;0.45;;;;;;;;;;5031092;28;20044;-61
2022/09/19 09:17:47;;;;;;;2.45;0.63;;;;;;;;;;5031484;28;20034;-61
2022/09/19 09:20:28;;;;;;;4.18;0.63;;;;;;;;;;5030775;28;20718;-62
2022/09/19 09:23:07;;;;;;;1.70;0.47;;;;;;;;;;5026974;28;20026;-62
2022/09/19 09:25:35;;;;;;;1.33;0.70;;;;;;;;;;5019916;28;20060;-61
2022/09/19 09:28:08;;;;;;;2.13;0.52;;;;;;;;;;5031450;28;20051;-61
2022/09/19 09:30:37;;;;;;;5.60;0.70;;;;;;;;;;5031201;28;20033;-61
2022/09/19 09:33:07;;;;;;;5.45;0.60;;;;;;;;;;5031158;28;20034;-61
2022/09/19 09:35:35;;;;;;;4.05;0.73;;;;;;;;;;5030964;28;20036;-61
2022/09/19 09:38:08;;;;;;;1.80;0.50;;;;;;;;;;5031024;28;20049;-61
2022/09/19 09:43:29;;;;;;;3.78;0.50;;;;;;;;;;5031079;28;20096;-61
2022/09/19 09:45:55;;;;;;;2.92;0.50;;;;;;;;;;5030914;28;20029;-61
2022/09/19 09:48:27;;;;;;;1.17;0.50;;;;;;;;;;5031323;28;20120;-61
2022/09/19 09:51:15;;;;;;;2.45;0.40;;;;;;;;;;5030769;28;20025;-61
2022/09/19 09:53:41;;;;;;;2.22;0.40;;;;;;;;;;5030934;28;20406;-61
2022/09/19 09:56:31;;;;;;;0.70;0.50;;;;;;;;;;5029411;28;20090;-62
2022/09/19 09:59:00;;;;;;;5.28;0.50;;;;;;;;;;5030989;28;20108;-61
2022/09/19 10:04:45;;;;;;;2.58;0.40;;;;;;;;;;5022271;28;20107;-61
2022/09/19 10:07:24;;;;;;;1.38;0.40;;;;;;;;;;5034899;28;20036;-61
2022/09/19 10:09:53;;;;;;;0.75;0.38;;;;;;;;;;5034482;28;20025;-61
2022/09/19 10:12:25;;;;;;;1.67;0.40;;;;;;;;;;5033309;28;20033;-61
2022/09/19 10:14:54;;;;;;;1.17;0.22;;;;;;;;;;5034582;28;20487;-61
2022/09/19 10:17:21;;;;;;;0.82;0.28;;;;;;;;;;5027699;28;20357;-61
2022/09/19 10:19:53;;;;;;;1.88;0.70;;;;;;;;;;5033141;28;20051;-61
2022/09/19 10:22:19;;;;;;;2.05;0.70;;;;;;;;;;5034762;28;20432;-61
2022/09/19 10:24:56;;;;;;;1.45;0.30;;;;;;;;;;5034681;28;20030;-61
2022/09/19 10:27:31;;;;;;;1.13;0.57;;;;;;;;;;5034477;28;20112;-61
2022/09/19 10:30:00;;;;;;;2.53;0.50;;;;;;;;;;5034282;28;20124;-61
2022/09/19 10:32:37;;;;;;;1.35;0.35;;;;;;;;;;5032662;28;20043;-61
2022/09/19 10:35:28;;;;;;;0.70;0.45;;;;;;;;;;5033464;28;20040;-61
2022/09/19 10:37:59;;;;;;;1.67;0.38;;;;;;;;;;5008060;28;20160;-61
2022/09/19 10:40:25;;;;;;;1.58;0.35;;;;;;;;;;5034048;28;20028;-61
2022/09/19 10:42:54;;;;;;;1.77;0.50;;;;;;;;;;5034584;28;20029;-61
2022/09/19 10:45:25;;;;;;;1.45;0.40;;;;;;;;;;5034143;28;20026;-61
2022/09/19 10:47:53;;;;;;;2.58;0.50;;;;;;;;;;5032488;28;20124;-61
2022/09/19 10:50:19;;;;;;;0.45;0.40;;;;;;;;;;5033810;28;20084;-61
2022/09/19 10:52:46;;;;;;;0.32;0.15;;;;;;;;;;5034157;28;20026;-61
2022/09/19 10:55:14;;;;;;;0.90;0.30;;;;;;;;;;5033953;28;20034;-61
2022/09/19 10:57:45;;;;;;;3.03;0.35;;;;;;;;;;5035284;28;20032;-61
2022/09/19 11:00:22;;;;;;;2.55;0.40;;;;;;;;;;5021028;28;20469;-61
2022/09/19 11:02:56;;;;;;;0.70;0.30;;;;;;;;;;5032274;28;20511;-61
2022/09/19 11:05:27;;;;;;;0.70;0.20;;;;;;;;;;5033937;28;20033;-61
2022/09/19 11:07:58;;;;;;;1.58;0.38;;;;;;;;;;5033778;28;20026;-61
2022/09/19 11:10:41;;;;;;;0.68;0.28;;;;;;;;;;5032993;28;20060;-62
2022/09/19 11:13:12;;;;;;;0.75;0.45;;;;;;;;;;5033668;28;20561;-61
2022/09/19 11:16:01;;;;;;;0.77;0.20;;;;;;;;;;5033610;28;20029;-62
2022/09/19 11:18:44;;;;;;;1.88;0.20;;;;;;;;;;5019450;28;20492;-61
2022/09/19 11:21:29;;;;;;;0.93;0.40;;;;;;;;;;5020191;28;20540;-61
2022/09/19 11:24:01;;;;;;;0.77;0.30;;;;;;;;;;5033392;28;20091;-61
2022/09/19 11:26:46;;;;;;;0.43;0.10;;;;;;;;;;5033591;28;20025;-62
2022/09/19 11:29:18;;;;;;;0.35;0.10;;;;;;;;;;5032652;28;20024;-62
2022/09/19 11:32:03;;;;;;;4.13;0.40;;;;;;;;;;5033197;28;20024;-61
2022/09/19 11:34:37;;;;;;;0.57;0.30;;;;;;;;;;5033260;28;20030;-61
2022/09/19 11:37:25;;;;;;;0.30;0.10;;;;;;;;;;5031553;28;20033;-61
2022/09/19 11:40:02;;;;;;;0.57;0.20;;;;;;;;;;5032807;28;20040;-61
2022/09/19 11:42:48;;;;;;;1.63;0.20;;;;;;;;;;5033267;28;20029;-61
2022/09/19 11:45:18;;;;;;;2.05;0.25;;;;;;;;;;5031943;28;20017;-61
2022/09/19 11:48:02;;;;;;;0.93;0.32;;;;;;;;;;5033144;28;20025;-61
2022/09/19 11:50:48;;;;;;;5.70;0.47;;;;;;;;;;5032506;28;20033;-61
2022/09/19 11:53:28;;;;;;;1.02;0.17;;;;;;;;;;5030236;28;20037;-61
2022/09/19 11:56:03;;;;;;;3.72;0.43;;;;;;;;;;5033026;28;20179;-62
2022/09/19 11:58:44;;;;;;;1.15;0.20;;;;;;;;;;5032535;28;20477;-60
2022/09/19 12:01:25;;;;;;;3.20;0.30;;;;;;;;;;5031825;28;20029;-61
2022/09/19 12:04:06;;;;;;;0.28;0.17;;;;;;;;;;5021855;28;20018;-62
2022/09/19 12:06:50;;;;;;;0.95;0.50;;;;;;;;;;5029976;28;20480;-61
2022/09/19 12:09:37;;;;;;;1.92;0.65;;;;;;;;;;5030290;28;20646;-62
2022/09/19 12:12:23;;;;;;;0.52;0.20;;;;;;;;;;5021851;28;20547;-62
2022/09/19 12:14:51;;;;;;;1.38;0.25;;;;;;;;;;5032027;28;20129;-61
2022/09/19 12:17:22;;;;;;;0.30;0.20;;;;;;;;;;5031293;28;20094;-61
2022/09/19 12:19:57;;;;;;;0.52;0.13;;;;;;;;;;5029367;28;20103;-62
2022/09/19 12:22:24;;;;;;;3.17;0.60;;;;;;;;;;5025329;28;20083;-60
2022/09/19 12:25:01;;;;;;;8.43;1.10;;;;;;;;;;5026555;28;20112;-60
2022/09/19 12:27:31;;;;;;;4.47;0.60;;;;;;;;;;5031644;28;20153;-61
2022/09/19 12:30:05;;;;;;;5.55;0.93;;;;;;;;;;5029024;28;20108;-61
2022/09/19 12:32:42;;;;;;;3.88;0.50;;;;;;;;;;5027721;28;20385;-61
2022/09/19 12:35:13;;;;;;;3.45;0.80;;;;;;;;;;5027376;28;20481;-61
2022/09/19 12:37:50;;;;;;;7.78;1.10;;;;;;;;;;5031322;28;20107;-61
2022/09/19 12:40:29;;;;;;;1.50;0.38;;;;;;;;;;5031316;28;20477;-60
2022/09/19 12:43:04;;;;;;;3.58;0.70;;;;;;;;;;5030209;28;20021;-62
2022/09/19 12:45:34;;;;;;;1.58;0.60;;;;;;;;;;5031867;28;20053;-61
2022/09/19 12:48:06;;;;;;;4.88;0.60;;;;;;;;;;5030241;28;20026;-61
2022/09/19 12:50:36;;;;;;;3.58;0.68;;;;;;;;;;5022630;28;20080;-61
2022/09/19 12:53:09;;;;;;;1.52;0.40;;;;;;;;;;5031914;28;20615;-61
2022/09/19 12:55:39;;;;;;;4.68;0.50;;;;;;;;;;5024888;28;20064;-61
2022/09/19 12:58:20;;;;;;;5.93;0.65;;;;;;;;;;5026928;28;20025;-61
2022/09/19 13:00:48;;;;;;;5.15;0.80;;;;;;;;;;5031096;28;20044;-61
2022/09/19 13:03:17;;;;;;;2.88;1.00;;;;;;;;;;5029819;28;20037;-61
2022/09/19 13:05:47;;;;;;;3.38;0.75;;;;;;;;;;5031247;28;20108;-61
2022/09/19 13:08:25;;;;;;;2.83;0.40;;;;;;;;;;5031710;28;20488;-61
2022/09/19 13:11:13;;;;;;;1.83;0.60;;;;;;;;;;5030762;28;20033;-61
2022/09/19 13:13:51;;;;;;;1.63;0.50;;;;;;;;;;5022863;28;20169;-61
2022/09/19 13:16:18;;;;;;;2.35;0.43;;;;;;;;;;5031662;28;20068;-61
2022/09/19 13:24:44;;;;;;;4.07;0.60;;;;;;;;;;5028121;28;20504;-61
2022/09/19 13:27:12;;;;;;;5.57;0.50;;;;;;;;;;5018901;28;20592;-61
2022/09/19 13:29:42;;;;;;;2.15;0.38;;;;;;;;;;5026914;28;20468;-61
2022/09/19 13:32:27;;;;;;;2.33;0.55;;;;;;;;;;5030944;28;20432;-61
2022/09/19 13:35:11;;;;;;;3.00;0.50;;;;;;;;;;5013329;28;20035;-61
2022/09/19 13:37:37;;;;;;;2.35;0.52;;;;;;;;;;5028651;28;20036;-61
2022/09/19 13:40:06;;;;;;;2.55;0.50;;;;;;;;;;5022604;28;20789;-61
2022/09/19 13:42:40;;;;;;;4.43;0.55;;;;;;;;;;5029004;28;20079;-60
2022/09/19 13:45:25;;;;;;;0.52;0.40;;;;;;;;;;5023324;28;20079;-62
2022/09/19 13:47:54;;;;;;;1.17;0.40;;;;;;;;;;5023034;28;20116;-61
2022/09/19 13:50:28;;;;;;;0.98;0.30;;;;;;;;;;5024936;28;20025;-61
2022/09/19 13:53:02;;;;;;;1.42;0.40;;;;;;;;;;5019473;28;20026;-61
2022/09/19 13:55:41;;;;;;;0.55;0.40;;;;;;;;;;5029922;28;20029;-61
2022/09/19 13:58:19;;;;;;;2.00;0.40;;;;;;;;;;5029049;28;20060;-60
2022/09/19 14:00:47;;;;;;;1.77;0.50;;;;;;;;;;5024859;28;20057;-61
2022/09/19 14:03:32;;;;;;;1.20;0.60;;;;;;;;;;5027867;28;20018;-61
2022/09/19 14:06:24;;;;;;;3.00;0.60;;;;;;;;;;5025220;28;20029;-61
2022/09/19 14:09:09;;;;;;;3.83;0.90;;;;;;;;;;5020426;28;20037;-61
2022/09/19 14:11:35;;;;;;;1.77;0.60;;;;;;;;;;5022375;28;20128;-61
2022/09/19 14:14:21;;;;;;;3.50;0.65;;;;;;;;;;5025923;28;20033;-61
2022/09/19 14:17:07;;;;;;;1.75;0.60;;;;;;;;;;5026098;28;20036;-61
2022/09/19 14:19:48;;;;;;;4.30;0.73;;;;;;;;;;5021300;28;20042;-61
2022/09/19 14:22:37;;;;;;;3.50;0.82;;;;;;;;;;5024100;28;20116;-61
2022/09/19 14:25:09;;;;;;;1.65;0.50;;;;;;;;;;5012074;28;20492;-61
2022/09/19 14:27:54;;;;;;;4.97;0.77;;;;;;;;;;5025770;28;20512;-61
2022/09/19 14:30:23;;;;;;;0.98;0.60;;;;;;;;;;5027504;28;20032;-61
2022/09/19 14:33:08;;;;;;;1.15;0.60;;;;;;;;;;5027861;28;20037;-61
2022/09/19 14:35:48;;;;;;;2.30;0.63;;;;;;;;;;5026181;28;20025;-61
2022/09/19 14:38:41;;;;;;;1.55;0.57;;;;;;;;;;5028651;28;20026;-61
2022/09/19 14:41:10;;;;;;;3.37;0.40;;;;;;;;;;5023396;28;20037;-61
2022/09/19 14:43:36;;;;;;;2.22;0.50;;;;;;;;;;5026132;28;20651;-62
2022/09/19 14:46:09;;;;;;;1.65;0.50;;;;;;;;;;5027441;28;20034;-61
2022/09/19 14:48:38;;;;;;;2.15;0.65;;;;;;;;;;5031907;28;20029;-61
2022/09/19 14:51:13;;;;;;;4.93;1.17;;;;;;;;;;5023664;28;20472;-61
2022/09/19 14:53:39;;;;;;;1.55;0.47;;;;;;;;;;5031334;28;20040;-61
2022/09/19 14:56:13;;;;;;;1.48;0.55;;;;;;;;;;5029321;28;20033;-61
2022/09/19 14:58:39;;;;;;;1.92;0.50;;;;;;;;;;5023252;28;20060;-61
2022/09/19 15:01:15;;;;;;;3.42;0.50;;;;;;;;;;5023324;28;20041;-61
2022/09/19 15:03:48;;;;;;;3.47;0.45;;;;;;;;;;5030243;28;20025;-62
2022/09/19 15:06:34;;;;;;;3.83;1.00;;;;;;;;;;5025435;28;20068;-61
2022/09/19 15:09:00;;;;;;;2.00;0.50;;;;;;;;;;5026864;28;20037;-61
2022/09/19 15:11:27;;;;;;;3.47;0.38;;;;;;;;;;5031217;28;20115;-62
2022/09/19 15:13:55;;;;;;;1.00;0.40;;;;;;;;;;5030426;28;20560;-61
2022/09/19 15:16:21;;;;;;;2.05;0.47;;;;;;;;;;5025420;28;20532;-61
2022/09/19 15:18:49;;;;;;;0.80;0.50;;;;;;;;;;5027281;28;20053;-61
2022/09/19 15:21:22;;;;;;;1.00;0.35;;;;;;;;;;5025191;28;20018;-61
2022/09/19 15:23:49;;;;;;;1.30;0.30;;;;;;;;;;5025471;28;20806;-62